Time;durP1;ratioP1;P1;durP2;ratioP2;P2;SDS_P1;SDS_P2;PMS_P1;PMS_P2;Temp;Humidity;BMP_temperature;BMP_pressure;BME280_temperature;BME280_humidity;BME280_pressure;Samples;Min_cycle;Max_cycle;Signal;HPM_P1;HPM_P2
2021/01/11 00:01:44;;;;;;;6.50;5.10;;;3.70;99.50;;;;;;6128874;23;20431;-80
2021/01/11 00:04:11;;;;;;;7.47;5.10;;;3.70;99.60;;;;;;6130643;23;20459;-79
2021/01/11 00:06:41;;;;;;;5.90;5.23;;;3.80;99.40;;;;;;6136748;23;20419;-79
2021/01/11 00:09:08;;;;;;;5.77;4.70;;;3.90;99.20;;;;;;6144941;23;20443;-78
2021/01/11 00:11:35;;;;;;;7.10;5.10;;;3.80;98.90;;;;;;6144134;23;20494;-78
2021/01/11 00:14:03;;;;;;;6.80;4.87;;;3.80;98.90;;;;;;6144069;23;20427;-79
2021/01/11 00:16:31;;;;;;;5.50;4.70;;;3.80;98.70;;;;;;6144916;23;20487;-79
2021/01/11 00:18:58;;;;;;;7.53;5.07;;;3.60;99.10;;;;;;6144387;23;20451;-79
2021/01/11 00:21:25;;;;;;;5.33;4.07;;;3.60;98.90;;;;;;6143850;23;20476;-78
2021/01/11 00:23:51;;;;;;;7.20;5.17;;;3.50;98.80;;;;;;6143519;23;20486;-78
2021/01/11 00:26:17;;;;;;;5.33;4.50;;;3.60;98.90;;;;;;6143270;23;20768;-78
2021/01/11 00:28:44;;;;;;;7.67;5.40;;;3.60;98.90;;;;;;6143415;23;20399;-76
2021/01/11 00:31:11;;;;;;;7.37;5.23;;;3.50;98.90;;;;;;6133044;23;20474;-81
2021/01/11 00:33:38;;;;;;;8.17;5.23;;;3.50;99.40;;;;;;6120628;23;20879;-80
2021/01/11 00:36:05;;;;;;;7.20;5.20;;;3.60;99.90;;;;;;6121393;23;20423;-81
2021/01/11 00:38:32;;;;;;;7.13;5.30;;;3.60;99.90;;;;;;6122080;23;20470;-79
2021/01/11 00:40:58;;;;;;;8.80;5.57;;;3.50;99.90;;;;;;6119188;23;20448;-79
2021/01/11 00:43:24;;;;;;;7.80;5.40;;;3.40;99.90;;;;;;6120917;23;20423;-79
2021/01/11 00:45:50;;;;;;;8.67;5.90;;;3.30;99.90;;;;;;6120630;23;20416;-81
2021/01/11 00:48:17;;;;;;;7.77;5.30;;;3.20;99.90;;;;;;6119055;23;20483;-79
2021/01/11 00:50:43;;;;;;;6.83;6.10;;;3.30;99.90;;;;;;6121947;23;20422;-81
2021/01/11 00:53:09;;;;;;;7.10;5.20;;;3.40;99.90;;;;;;6121654;23;20428;-79
2021/01/11 00:55:35;;;;;;;5.10;4.60;;;3.50;99.90;;;;;;6121355;23;20431;-80
2021/01/11 00:58:01;;;;;;;9.10;5.50;;;3.40;99.90;;;;;;6121682;23;20988;-79
2021/01/11 01:00:28;;;;;;;6.63;4.97;;;3.30;99.90;;;;;;6121928;23;20958;-80
2021/01/11 01:02:54;;;;;;;5.37;4.87;;;3.30;99.90;;;;;;6121637;23;20431;-80
2021/01/11 01:05:21;;;;;;;5.40;4.90;;;3.20;99.90;;;;;;6122506;23;20490;-80
2021/01/11 01:07:47;;;;;;;5.20;4.50;;;3.10;99.90;;;;;;6131395;23;20418;-78
2021/01/11 01:10:14;;;;;;;6.43;4.50;;;3.00;99.90;;;;;;6145653;23;20430;-76
2021/01/11 01:12:41;;;;;;;6.37;4.93;;;3.20;99.90;;;;;;6142252;23;20427;-77
2021/01/11 01:15:10;;;;;;;6.30;3.90;;;3.10;99.90;;;;;;6122417;23;20420;-79
2021/01/11 01:17:37;;;;;;;5.40;3.60;;;3.30;99.90;;;;;;6122317;23;20443;-79
2021/01/11 01:20:06;;;;;;;5.40;3.70;;;3.30;99.90;;;;;;6122493;23;20428;-81
2021/01/11 01:22:32;;;;;;;7.30;3.67;;;3.40;99.90;;;;;;6123361;23;20407;-80
2021/01/11 01:24:58;;;;;;;6.37;5.03;;;3.40;99.90;;;;;;6121317;23;20428;-81
2021/01/11 01:27:24;;;;;;;5.67;4.13;;;3.30;99.90;;;;;;6121211;23;20410;-80
2021/01/11 01:29:51;;;;;;;5.10;4.13;;;3.40;99.90;;;;;;6123517;23;20412;-81
2021/01/11 01:32:17;;;;;;;5.97;4.33;;;3.40;99.90;;;;;;6122745;23;20416;-81
2021/01/11 01:34:43;;;;;;;3.93;3.53;;;3.40;99.90;;;;;;6123883;23;20442;-80
2021/01/11 01:37:09;;;;;;;6.20;4.50;;;3.40;99.90;;;;;;6126034;23;21126;-80
2021/01/11 01:39:35;;;;;;;4.53;3.67;;;3.50;99.90;;;;;;6125195;23;20432;-78
2021/01/11 01:42:02;;;;;;;6.10;4.40;;;3.30;99.90;;;;;;6126492;23;20491;-81
2021/01/11 01:44:31;;;;;;;6.63;4.13;;;3.50;99.90;;;;;;6127097;23;20795;-80
2021/01/11 01:46:57;;;;;;;7.03;3.50;;;3.50;99.90;;;;;;6126047;23;20440;-81
2021/01/11 01:49:24;;;;;;;4.27;3.87;;;3.60;99.90;;;;;;6127556;23;20962;-80
2021/01/11 01:51:50;;;;;;;4.80;3.80;;;3.50;99.50;;;;;;6128771;23;20412;-81
2021/01/11 01:54:20;;;;;;;5.23;3.37;;;3.50;99.10;;;;;;6128202;23;20431;-79
2021/01/11 01:56:47;;;;;;;6.10;3.87;;;3.40;99.50;;;;;;6132451;23;20439;-79
2021/01/11 01:59:14;;;;;;;6.90;3.90;;;3.40;99.50;;;;;;6146144;23;20400;-78
2021/01/11 02:01:40;;;;;;;4.83;2.97;;;3.30;99.40;;;;;;6146002;23;20432;-78
2021/01/11 02:04:07;;;;;;;3.83;3.10;;;3.30;99.50;;;;;;6144369;23;20440;-79
2021/01/11 02:06:37;;;;;;;3.20;2.90;;;3.50;99.30;;;;;;6125272;23;20412;-79
2021/01/11 02:09:22;;;;;;;3.70;3.30;;;3.50;99.00;;;;;;6130703;23;20421;-80
2021/01/11 02:11:54;;;;;;;4.00;3.37;;;3.50;99.00;;;;;;6144406;23;20492;-78
2021/01/11 02:14:38;;;;;;;2.77;2.57;;;3.50;99.10;;;;;;6145874;23;20557;-77
2021/01/11 02:17:04;;;;;;;2.60;2.37;;;3.50;99.30;;;;;;6145982;23;20436;-79
2021/01/11 02:20:18;;;;;;;4.13;2.80;;;3.50;99.00;;;;;;6139449;23;20507;-81
2021/01/11 02:22:51;;;;;;;2.83;2.53;;;3.40;99.30;;;;;;6059501;23;20444;-77
2021/01/11 02:25:41;;;;;;;4.10;2.90;;;3.30;99.50;;;;;;6125230;23;20408;-79
2021/01/11 02:28:36;;;;;;;4.00;2.93;;;3.60;99.70;;;;;;6124240;23;20426;-79
2021/01/11 02:31:05;;;;;;;4.40;3.60;;;3.60;99.80;;;;;;6137604;23;20426;-77
2021/01/11 02:33:33;;;;;;;6.03;4.00;;;3.70;99.70;;;;;;6124198;23;20424;-83
2021/01/11 02:36:04;;;;;;;5.60;3.80;;;3.70;99.80;;;;;;6124489;23;20428;-81
2021/01/11 02:38:31;;;;;;;5.20;4.70;;;3.60;99.90;;;;;;6124694;23;20396;-81
2021/01/11 02:40:57;;;;;;;6.27;4.77;;;3.60;99.90;;;;;;6130576;23;20443;-78
2021/01/11 02:43:24;;;;;;;6.67;5.70;;;3.40;99.90;;;;;;6140595;23;20427;-79
2021/01/11 02:45:50;;;;;;;9.93;5.80;;;3.40;99.90;;;;;;6129629;23;20435;-81
2021/01/11 02:48:35;;;;;;;12.37;6.30;;;3.40;99.90;;;;;;6130468;23;20408;-79
2021/01/11 02:51:07;;;;;;;8.13;5.03;;;3.40;99.90;;;;;;6128807;23;20503;-79
2021/01/11 02:53:40;;;;;;;10.53;7.00;;;3.40;99.90;;;;;;6127157;23;20759;-81
2021/01/11 02:56:10;;;;;;;11.50;7.17;;;3.40;99.90;;;;;;6126561;23;20712;-80
2021/01/11 02:59:03;;;;;;;10.60;7.27;;;3.30;99.90;;;;;;6127301;23;20490;-79
2021/01/11 03:01:37;;;;;;;10.17;6.90;;;3.30;99.90;;;;;;6125703;23;20404;-79
2021/01/11 03:04:04;;;;;;;11.37;7.00;;;3.30;99.90;;;;;;6125770;23;20922;-81
2021/01/11 03:06:31;;;;;;;12.57;7.20;;;3.00;99.90;;;;;;6125366;23;20400;-80
2021/01/11 03:09:06;;;;;;;8.97;6.73;;;3.20;99.90;;;;;;6126630;23;20427;-78
2021/01/11 03:11:36;;;;;;;9.80;6.57;;;3.30;99.90;;;;;;6125562;23;21057;-81
2021/01/11 03:14:03;;;;;;;7.90;5.33;;;3.40;99.90;;;;;;6122454;23;20432;-81
2021/01/11 03:16:31;;;;;;;8.40;6.00;;;3.40;99.90;;;;;;6125930;23;20411;-81
2021/01/11 03:18:57;;;;;;;8.60;6.27;;;3.50;99.90;;;;;;6124707;23;20434;-79
2021/01/11 03:21:24;;;;;;;9.00;6.10;;;3.50;99.90;;;;;;6120114;23;20454;-80
2021/01/11 03:23:50;;;;;;;5.47;4.63;;;3.50;99.90;;;;;;6121809;23;20435;-81
2021/01/11 03:26:23;;;;;;;8.53;5.23;;;3.60;99.90;;;;;;6120430;23;20441;-81
2021/01/11 03:28:50;;;;;;;9.90;5.20;;;3.70;99.90;;;;;;6123341;23;20486;-81
2021/01/11 03:31:16;;;;;;;6.30;5.20;;;3.70;99.90;;;;;;6122028;23;21502;-80
2021/01/11 03:33:42;;;;;;;5.67;4.93;;;3.70;99.90;;;;;;6125891;23;20471;-80
2021/01/11 03:36:09;;;;;;;10.43;6.50;;;3.50;99.90;;;;;;6124765;23;20730;-80
2021/01/11 03:38:36;;;;;;;8.47;5.17;;;3.50;99.90;;;;;;6122456;23;20404;-80
2021/01/11 03:41:03;;;;;;;8.80;5.20;;;3.50;99.90;;;;;;6121479;23;20603;-80
2021/01/11 03:43:31;;;;;;;6.57;4.40;;;3.50;99.90;;;;;;6120375;23;20438;-81
2021/01/11 03:45:57;;;;;;;5.03;4.27;;;3.40;99.90;;;;;;6122193;23;20503;-81
2021/01/11 03:48:26;;;;;;;6.27;4.17;;;3.20;99.90;;;;;;6122828;23;20464;-80
2021/01/11 03:50:53;;;;;;;5.37;4.00;;;3.30;99.90;;;;;;6121377;23;20416;-81
2021/01/11 03:53:19;;;;;;;7.23;4.57;;;3.30;99.90;;;;;;6120732;23;20429;-79
2021/01/11 03:55:45;;;;;;;4.87;3.97;;;3.30;99.90;;;;;;6121618;23;20408;-81
2021/01/11 03:58:11;;;;;;;6.53;3.33;;;3.50;99.90;;;;;;6119563;23;20408;-80
2021/01/11 04:00:37;;;;;;;4.70;3.40;;;3.60;99.90;;;;;;6125814;23;20479;-82
2021/01/11 04:03:05;;;;;;;4.67;3.47;;;3.50;99.90;;;;;;6128491;23;20794;-80
2021/01/11 04:05:31;;;;;;;3.90;3.50;;;3.40;99.90;;;;;;6127306;23;20757;-80
2021/01/11 04:07:58;;;;;;;3.70;3.30;;;3.50;99.90;;;;;;6128770;23;20422;-79
2021/01/11 04:10:24;;;;;;;3.60;3.00;;;3.50;99.90;;;;;;6130966;23;20436;-80
2021/01/11 04:12:50;;;;;;;3.07;2.57;;;3.50;99.90;;;;;;6130745;23;20431;-79
2021/01/11 04:15:16;;;;;;;4.40;3.33;;;3.30;99.90;;;;;;6139156;23;20426;-78
2021/01/11 04:17:43;;;;;;;3.13;2.63;;;3.30;99.90;;;;;;6128455;23;20522;-79
2021/01/11 04:20:09;;;;;;;4.33;2.57;;;3.40;99.90;;;;;;6121720;23;20436;-79
2021/01/11 04:22:35;;;;;;;3.50;3.07;;;3.60;99.90;;;;;;6121419;23;20415;-80
2021/01/11 04:25:03;;;;;;;3.30;3.00;;;3.50;99.60;;;;;;6121745;23;20515;-81
2021/01/11 04:27:29;;;;;;;4.90;4.00;;;3.40;99.80;;;;;;6119819;23;20415;-80
2021/01/11 04:29:55;;;;;;;5.23;3.77;;;3.30;99.90;;;;;;6120695;23;20420;-79
2021/01/11 04:32:21;;;;;;;5.40;4.10;;;3.40;99.90;;;;;;6120192;23;20447;-81
2021/01/11 04:34:47;;;;;;;7.20;3.97;;;3.50;99.90;;;;;;6120435;23;20436;-78
2021/01/11 04:37:14;;;;;;;6.10;3.33;;;3.50;99.90;;;;;;6119826;23;20423;-80
2021/01/11 04:39:40;;;;;;;3.97;3.30;;;3.50;99.80;;;;;;6119000;23;20582;-81
2021/01/11 04:42:12;;;;;;;7.10;3.87;;;3.50;99.80;;;;;;6120076;23;20636;-81
2021/01/11 04:44:38;;;;;;;4.93;3.27;;;3.50;99.90;;;;;;6117272;23;20446;-82
2021/01/11 04:47:04;;;;;;;4.30;3.40;;;3.60;99.90;;;;;;6119825;23;20415;-81
2021/01/11 04:49:31;;;;;;;5.50;4.40;;;3.60;99.90;;;;;;6118405;23;20415;-82
2021/01/11 04:52:00;;;;;;;5.93;4.83;;;3.60;99.90;;;;;;6118301;23;20900;-83
2021/01/11 04:54:30;;;;;;;8.30;4.83;;;3.60;99.90;;;;;;6119963;23;20432;-81
2021/01/11 04:56:59;;;;;;;7.33;4.60;;;3.50;99.90;;;;;;6118480;23;20447;-80
2021/01/11 04:59:27;;;;;;;8.80;5.67;;;3.50;99.90;;;;;;6119626;23;20426;-82
2021/01/11 05:01:55;;;;;;;9.60;4.70;;;3.30;99.90;;;;;;6119203;23;20788;-82
2021/01/11 05:04:22;;;;;;;9.43;5.60;;;3.10;99.90;;;;;;6120151;23;20432;-81
2021/01/11 05:06:48;;;;;;;3.10;2.40;;;3.20;99.90;;;;;;6122514;23;20408;-81
2021/01/11 05:09:17;;;;;;;4.40;3.30;;;3.10;99.90;;;;;;6122976;23;20546;-81
2021/01/11 05:11:43;;;;;;;5.50;3.00;;;3.20;99.90;;;;;;6123761;23;20420;-78
2021/01/11 05:14:17;;;;;;;3.80;2.90;;;3.60;99.90;;;;;;6123727;23;20440;-80
2021/01/11 05:17:01;;;;;;;3.40;3.10;;;3.70;99.40;;;;;;6121545;23;20399;-82
2021/01/11 05:19:27;;;;;;;4.00;3.20;;;3.40;99.10;;;;;;6128115;23;20404;-79
2021/01/11 05:21:54;;;;;;;4.10;3.70;;;3.50;99.30;;;;;;6129980;23;20884;-78
2021/01/11 05:24:37;;;;;;;4.60;3.27;;;3.60;98.70;;;;;;6128440;23;20435;-79
2021/01/11 05:27:06;;;;;;;5.60;3.40;;;3.60;98.40;;;;;;6127892;23;20481;-81
2021/01/11 05:29:33;;;;;;;3.50;2.90;;;3.60;98.40;;;;;;6121703;23;20408;-81
2021/01/11 05:32:02;;;;;;;5.67;5.10;;;3.30;98.90;;;;;;6121105;23;20491;-79
2021/01/11 05:34:49;;;;;;;4.77;3.83;;;3.30;99.70;;;;;;6122653;23;20427;-79
2021/01/11 05:37:42;;;;;;;7.97;4.03;;;3.20;99.90;;;;;;6122591;23;20899;-82
2021/01/11 05:40:14;;;;;;;5.57;4.33;;;3.20;99.90;;;;;;6124174;23;20447;-79
2021/01/11 05:42:42;;;;;;;7.40;4.47;;;3.00;99.90;;;;;;6124405;23;20507;-80
2021/01/11 05:45:16;;;;;;;9.60;5.73;;;2.90;99.90;;;;;;6123012;23;20412;-79
2021/01/11 05:47:57;;;;;;;10.60;7.00;;;3.20;99.90;;;;;;6122367;23;20418;-82
2021/01/11 05:50:33;;;;;;;9.80;6.30;;;3.40;99.90;;;;;;6122158;23;20426;-79
2021/01/11 05:53:00;;;;;;;10.33;6.23;;;3.50;99.90;;;;;;6125129;23;20431;-80
2021/01/11 05:55:28;;;;;;;7.57;5.20;;;3.30;99.90;;;;;;6133883;23;20412;-80
2021/01/11 05:58:01;;;;;;;7.90;5.17;;;3.10;99.90;;;;;;6130089;23;20400;-79
2021/01/11 06:00:30;;;;;;;9.43;5.53;;;3.00;99.90;;;;;;6132998;23;20530;-80
2021/01/11 06:02:58;;;;;;;10.80;5.90;;;3.00;99.90;;;;;;6131079;23;20438;-77
2021/01/11 06:05:25;;;;;;;13.53;6.70;;;3.10;99.90;;;;;;6131271;23;20504;-79
2021/01/11 06:07:57;;;;;;;11.93;6.50;;;3.10;99.90;;;;;;6131971;23;20818;-78
2021/01/11 06:10:25;;;;;;;9.43;6.27;;;3.20;99.90;;;;;;6130823;23;20415;-79
2021/01/11 06:12:52;;;;;;;10.03;6.20;;;3.10;99.90;;;;;;6130223;23;20416;-80
2021/01/11 06:15:23;;;;;;;8.10;5.40;;;3.10;99.90;;;;;;6131194;23;20744;-79
2021/01/11 06:17:51;;;;;;;7.43;4.70;;;3.10;99.90;;;;;;6132656;23;20387;-79
2021/01/11 06:20:22;;;;;;;8.87;5.63;;;2.90;99.90;;;;;;6127757;23;20682;-81
2021/01/11 06:22:51;;;;;;;21.90;6.57;;;2.70;99.90;;;;;;6127596;23;20411;-80
2021/01/11 06:25:18;;;;;;;11.23;6.20;;;2.60;99.90;;;;;;6123467;23;20425;-79
2021/01/11 06:28:06;;;;;;;9.60;6.23;;;2.70;99.90;;;;;;6125215;23;20442;-79
2021/01/11 06:30:33;;;;;;;12.80;6.93;;;2.90;99.90;;;;;;6140112;23;20392;-79
2021/01/11 06:33:10;;;;;;;8.67;5.67;;;2.90;99.90;;;;;;6132781;23;20432;-78
2021/01/11 06:35:42;;;;;;;11.50;6.10;;;2.80;99.90;;;;;;6128844;23;20439;-80
2021/01/11 06:38:18;;;;;;;10.20;6.30;;;2.80;99.90;;;;;;6124565;23;20402;-79
2021/01/11 06:40:46;;;;;;;10.60;6.53;;;2.80;99.90;;;;;;6126864;23;20499;-80
2021/01/11 06:43:14;;;;;;;9.20;6.33;;;2.70;99.90;;;;;;6124510;23;20416;-80
2021/01/11 06:45:42;;;;;;;12.30;7.30;;;2.70;99.90;;;;;;6124547;23;20447;-81
2021/01/11 06:48:20;;;;;;;11.20;6.53;;;2.40;99.90;;;;;;6124262;23;20743;-82
2021/01/11 06:50:48;;;;;;;8.10;6.60;;;2.30;99.90;;;;;;6124123;23;20790;-79
2021/01/11 06:53:28;;;;;;;8.50;6.30;;;2.40;99.90;;;;;;6126547;23;21005;-79
2021/01/11 06:56:31;;;;;;;7.37;6.00;;;2.50;99.90;;;;;;6123962;23;20423;-78
2021/01/11 06:59:06;;;;;;;9.47;5.70;;;2.60;99.90;;;;;;6124482;23;20946;-80
2021/01/11 07:01:36;;;;;;;9.63;6.00;;;2.60;99.90;;;;;;6123479;23;20498;-79
2021/01/11 07:04:03;;;;;;;10.60;6.10;;;2.70;99.90;;;;;;6125942;23;20432;-78
2021/01/11 07:06:38;;;;;;;10.53;7.00;;;2.70;99.90;;;;;;6125163;23;20396;-79
2021/01/11 07:09:07;;;;;;;8.67;6.20;;;2.70;99.90;;;;;;6123894;23;20392;-81
2021/01/11 07:11:41;;;;;;;9.57;7.17;;;2.70;99.90;;;;;;6122427;23;20527;-80
2021/01/11 07:14:08;;;;;;;12.17;7.30;;;2.70;99.90;;;;;;6122558;23;20432;-79
2021/01/11 07:16:50;;;;;;;12.90;7.10;;;2.60;99.90;;;;;;6124804;23;20418;-79
2021/01/11 07:19:21;;;;;;;9.60;7.47;;;2.50;99.90;;;;;;6125130;23;20399;-80
2021/01/11 07:21:49;;;;;;;10.37;6.73;;;2.50;99.90;;;;;;6127091;23;20444;-79
2021/01/11 07:24:16;;;;;;;8.80;6.87;;;2.70;99.90;;;;;;6126252;23;20424;-79
2021/01/11 07:26:43;;;;;;;9.00;6.30;;;2.70;99.90;;;;;;6124619;23;20476;-80
2021/01/11 07:29:17;;;;;;;7.57;6.47;;;2.70;99.90;;;;;;6128993;23;20404;-80
2021/01/11 07:31:45;;;;;;;9.77;7.23;;;2.60;99.90;;;;;;6126838;23;20813;-79
2021/01/11 07:34:13;;;;;;;7.40;6.07;;;2.60;99.90;;;;;;6125813;23;20443;-78
2021/01/11 07:36:46;;;;;;;9.93;7.07;;;2.50;99.90;;;;;;6124981;23;20420;-78
2021/01/11 07:39:25;;;;;;;10.43;6.60;;;2.30;99.90;;;;;;6128980;23;20436;-78
2021/01/11 07:41:59;;;;;;;12.47;7.20;;;2.50;99.90;;;;;;6125868;23;20850;-78
2021/01/11 07:44:36;;;;;;;13.00;7.03;;;2.50;99.90;;;;;;6125045;23;20440;-78
2021/01/11 07:47:06;;;;;;;9.77;6.07;;;2.50;99.90;;;;;;6125375;23;20464;-80
2021/01/11 07:49:40;;;;;;;11.37;6.33;;;2.30;99.90;;;;;;6131434;23;20803;-82
2021/01/11 07:52:11;;;;;;;8.00;6.03;;;2.60;99.90;;;;;;6128644;23;20445;-79
2021/01/11 07:54:39;;;;;;;8.87;6.23;;;2.50;99.90;;;;;;6132819;23;20459;-79
2021/01/11 07:57:16;;;;;;;8.80;6.37;;;2.40;99.90;;;;;;6133456;23;20435;-80
2021/01/11 07:59:43;;;;;;;10.67;6.80;;;2.20;99.90;;;;;;6131695;23;20407;-77
2021/01/11 08:02:11;;;;;;;7.87;5.90;;;2.30;99.90;;;;;;6135794;23;20408;-79
2021/01/11 08:04:39;;;;;;;7.17;4.90;;;2.50;99.90;;;;;;6140149;23;20435;-80
2021/01/11 08:07:11;;;;;;;9.80;7.23;;;2.50;99.90;;;;;;6143565;23;20665;-77
2021/01/11 08:09:39;;;;;;;7.50;5.80;;;2.40;99.90;;;;;;6143932;23;20400;-78
2021/01/11 08:12:15;;;;;;;8.37;6.57;;;2.60;99.90;;;;;;6140855;23;20419;-77
2021/01/11 08:14:43;;;;;;;10.07;6.63;;;2.60;99.90;;;;;;6129392;23;20929;-81
2021/01/11 08:17:26;;;;;;;11.30;6.93;;;2.60;99.90;;;;;;6127007;23;20439;-77
2021/01/11 08:19:55;;;;;;;11.00;6.97;;;2.50;99.90;;;;;;6135573;23;20391;-79
2021/01/11 08:22:23;;;;;;;10.83;6.97;;;2.60;99.90;;;;;;6141702;23;20474;-81
2021/01/11 08:24:51;;;;;;;8.70;6.20;;;2.80;99.90;;;;;;6140933;23;20475;-80
2021/01/11 08:27:29;;;;;;;9.50;7.00;;;2.50;99.90;;;;;;6142033;23;20421;-78
2021/01/11 08:30:03;;;;;;;10.70;6.60;;;2.40;99.90;;;;;;6140483;23;20411;-78
2021/01/11 08:32:32;;;;;;;8.37;6.80;;;2.40;99.90;;;;;;6125760;23;20439;-80
2021/01/11 08:35:32;;;;;;;9.50;6.53;;;2.50;99.90;;;;;;6172322;23;20469;-78
2021/01/11 08:38:12;;;;;;;9.27;5.70;;;2.50;99.90;;;;;;6156003;23;20401;-79
2021/01/11 08:41:10;;;;;;;7.40;5.67;;;2.60;99.90;;;;;;6065590;23;20449;-79
2021/01/11 08:47:47;;;;;;;;;;;;;;;;;;;;;
2021/01/11 08:50:59;;;;;;;7.77;5.97;;;2.60;99.90;;;;;;5897025;24;20984;-80
2021/01/11 08:53:41;;;;;;;9.43;6.70;;;2.70;99.90;;;;;;5967345;24;20433;-77
2021/01/11 08:56:45;;;;;;;11.67;6.90;;;2.70;99.90;;;;;;5953192;24;20787;-80
2021/01/11 09:00:12;;;;;;;;;;;;;;;;;;;;;
2021/01/11 09:14:14;;;;;;;7.10;5.70;;;2.70;99.90;;;;;;5843891;24;20416;-76
2021/01/11 09:20:23;;;;;;;5.00;4.50;;;2.90;99.90;;;;;;5869286;24;20456;-80
2021/01/11 09:23:17;;;;;;;8.60;6.30;;;2.90;99.90;;;;;;5871982;24;20451;-78
2021/01/11 09:26:10;;;;;;;10.20;5.33;;;2.90;99.90;;;;;;5873358;24;20428;-80
2021/01/11 09:29:13;;;;;;;;;;;;;;;;;;;;;
2021/01/11 09:31:46;;;;;;;7.67;5.77;;;3.10;99.90;;;;;;5883315;24;20428;-80
2021/01/11 09:34:22;;;;;;;8.47;6.23;;;3.30;99.90;;;;;;5905506;24;20498;-78
2021/01/11 09:37:48;;;;;;;8.70;5.93;;;3.30;99.90;;;;;;5930529;24;20508;-80
2021/01/11 09:44:29;;;;;;;8.23;5.27;;;3.30;99.90;;;;;;5964452;23;21078;-80
2021/01/11 09:47:23;;;;;;;6.53;4.80;;;3.50;99.90;;;;;;6011313;23;20972;-81
2021/01/11 09:50:37;;;;;;;;;;;;;;;;;;;;;
2021/01/11 09:53:22;;;;;;;7.80;4.80;;;3.40;99.90;;;;;;6034199;23;20654;-81
2021/01/11 09:56:34;;;;;;;13.40;6.47;;;3.10;99.90;;;;;;6023578;23;20629;-81
2021/01/11 09:59:27;;;;;;;7.80;5.63;;;2.90;99.90;;;;;;6126902;23;20420;-81
2021/01/11 10:02:25;;;;;;;9.40;6.17;;;3.00;99.90;;;;;;6125416;23;20887;-79
2021/01/11 10:05:42;;;;;;;;;;;;;;;;;;;;;
2021/01/11 10:08:40;;;;;;;6.83;4.90;;;3.00;99.90;;;;;;6111617;23;20384;-79
2021/01/11 10:15:35;;;;;;;7.80;4.73;;;3.30;99.90;;;;;;6125521;23;20428;-79
2021/01/11 10:18:53;;;;;;;6.70;4.83;;;3.70;99.90;;;;;;6073632;23;20395;-79
2021/01/11 10:21:38;;;;;;;5.23;2.97;;;3.70;99.10;;;;;;6124066;23;20455;-77
2021/01/11 10:24:48;;;;;;;6.70;4.50;;;3.70;98.50;;;;;;6104278;23;20864;-79
2021/01/11 10:27:55;;;;;;;5.47;4.10;;;3.60;98.80;;;;;;6104151;23;20402;-77
2021/01/11 10:30:47;;;;;;;7.87;4.87;;;3.70;98.80;;;;;;6128970;23;21183;-80
2021/01/11 10:33:50;;;;;;;6.53;4.50;;;3.60;98.70;;;;;;6126429;23;20439;-81
2021/01/11 10:36:59;;;;;;;;;;;;;;;;;;;;;
2021/01/11 10:40:02;;;;;;;;;;;;;;;;;;;;;
2021/01/11 10:42:57;;;;;;;7.30;5.43;;;3.90;98.70;;;;;;6121601;23;21228;-81
2021/01/11 10:46:04;;;;;;;6.50;4.23;;;4.00;98.70;;;;;;6125770;23;20415;-80
2021/01/11 10:49:09;;;;;;;5.00;3.90;;;4.00;98.80;;;;;;6147630;23;20896;-80
2021/01/11 10:51:53;;;;;;;6.33;4.70;;;4.00;99.10;;;;;;6122132;23;20442;-80
2021/01/11 10:55:09;;;;;;;8.17;5.63;;;4.10;98.90;;;;;;6108417;23;21058;-81
2021/01/11 10:58:12;;;;;;;6.20;4.60;;;4.20;98.70;;;;;;6123893;23;20400;-80
2021/01/11 11:01:16;;;;;;;5.80;4.17;;;4.10;98.80;;;;;;6122785;23;20499;-80
2021/01/11 11:03:57;;;;;;;8.60;4.50;;;4.10;99.10;;;;;;6122920;23;20446;-81
2021/01/11 11:06:35;;;;;;;5.97;3.90;;;4.10;99.00;;;;;;6123572;23;20422;-80
2021/01/11 11:09:11;;;;;;;10.87;4.83;;;4.20;99.10;;;;;;6125532;23;20431;-80
2021/01/11 11:12:04;;;;;;;8.83;4.97;;;4.20;99.00;;;;;;6101938;23;20396;-80
2021/01/11 11:14:58;;;;;;;;;;;;;;;;;;;;;
2021/01/11 11:18:02;;;;;;;4.90;4.37;;;4.10;99.20;;;;;;6126650;23;20430;-80
2021/01/11 11:21:34;;;;;;;;;;;;;;;;;;;;;
2021/01/11 11:24:45;;;;;;;7.87;5.33;;;4.10;99.80;;;;;;6065272;23;20411;-79
2021/01/11 11:27:36;;;;;;;5.47;4.70;;;4.00;99.90;;;;;;6119584;23;20425;-78
2021/01/11 11:30:49;;;;;;;;;;;;;;;;;;;;;
2021/01/11 11:33:53;;;;;;;;;;;;;;;;;;;;;
2021/01/11 11:36:25;;;;;;;5.33;4.70;;;4.30;99.90;;;;;;6125458;23;20463;-79
2021/01/11 11:38:52;;;;;;;9.80;4.23;;;4.30;99.90;;;;;;6124145;23;20412;-79
2021/01/11 11:41:33;;;;;;;6.33;4.60;;;4.30;99.90;;;;;;6125038;23;20474;-78
2021/01/11 11:44:00;;;;;;;5.57;4.57;;;4.20;99.90;;;;;;6124532;23;20514;-80
2021/01/11 11:46:45;;;;;;;6.40;4.03;;;4.20;99.90;;;;;;6118992;23;20416;-80
2021/01/11 11:49:35;;;;;;;6.70;4.50;;;4.30;99.90;;;;;;6124750;23;20428;-78
2021/01/11 11:52:21;;;;;;;6.40;4.73;;;4.30;99.90;;;;;;6127808;23;20395;-79
2021/01/11 11:55:08;;;;;;;6.07;4.40;;;4.20;99.90;;;;;;6140872;23;20423;-78
2021/01/11 11:58:00;;;;;;;6.57;4.70;;;4.30;99.90;;;;;;6131094;23;20429;-81
2021/01/11 12:00:38;;;;;;;4.80;3.90;;;4.30;99.90;;;;;;6125482;23;20443;-79
2021/01/11 12:03:34;;;;;;;7.60;4.90;;;4.30;99.90;;;;;;6126551;23;20775;-80
2021/01/11 12:06:29;;;;;;;5.00;4.03;;;4.10;99.90;;;;;;6125201;23;20443;-79
2021/01/11 12:09:06;;;;;;;8.30;5.07;;;4.20;99.90;;;;;;6147349;23;20426;-81
2021/01/11 12:11:53;;;;;;;7.13;5.07;;;4.20;99.90;;;;;;6124726;23;20419;-81
2021/01/11 12:15:13;;;;;;;6.10;4.27;;;4.10;99.90;;;;;;6124408;23;20431;-82
2021/01/11 12:18:12;;;;;;;8.30;5.20;;;4.50;99.90;;;;;;6142270;23;20414;-80
2021/01/11 12:20:49;;;;;;;8.40;4.33;;;4.50;99.90;;;;;;6124787;23;20542;-81
2021/01/11 12:23:39;;;;;;;5.83;4.77;;;4.50;99.90;;;;;;6127988;23;20494;-81
2021/01/11 12:26:40;;;;;;;6.80;4.43;;;4.60;99.90;;;;;;6166976;23;20510;-80
2021/01/11 12:29:57;;;;;;;7.07;5.50;;;4.40;99.90;;;;;;6128808;23;20418;-80
2021/01/11 12:32:50;;;;;;;8.00;4.70;;;4.60;99.90;;;;;;6143318;23;20400;-79
2021/01/11 12:35:48;;;;;;;6.80;5.30;;;4.60;99.90;;;;;;6124867;23;20411;-81
2021/01/11 12:38:40;;;;;;;6.50;4.70;;;4.40;99.90;;;;;;6121721;23;20408;-79
2021/01/11 12:41:52;;;;;;;8.43;4.87;;;4.50;99.90;;;;;;6123930;23;20438;-80
2021/01/11 12:44:55;;;;;;;5.73;4.67;;;4.40;99.90;;;;;;6147409;23;20467;-82
2021/01/11 12:51:17;;;;;;;7.53;4.90;;;4.50;99.90;;;;;;6050785;23;20842;-79
2021/01/11 12:54:01;;;;;;;8.80;5.37;;;4.50;99.90;;;;;;6059252;23;20454;-79
2021/01/11 12:57:01;;;;;;;7.47;4.33;;;4.60;99.90;;;;;;6066437;23;20496;-77
2021/01/11 13:00:11;;;;;;;;;;;;;;;;;;;;;
2021/01/11 13:03:09;;;;;;;6.30;4.80;;;4.60;99.90;;;;;;6059537;23;20449;-81
2021/01/11 13:05:57;;;;;;;5.80;4.13;;;4.70;99.90;;;;;;6036515;23;20521;-82
2021/01/11 13:08:40;;;;;;;8.60;4.57;;;4.80;99.90;;;;;;6043711;23;20421;-81
2021/01/11 13:15:25;;;;;;;7.10;5.00;;;4.70;99.90;;;;;;6125682;23;20435;-80
2021/01/11 13:18:14;;;;;;;;;;;;;;;;;;;;;
2021/01/11 13:21:18;;;;;;;10.60;4.70;;;4.90;99.90;;;;;;6124401;23;20796;-81
2021/01/11 13:23:53;;;;;;;4.33;3.93;;;4.90;99.90;;;;;;6123078;23;20450;-80
2021/01/11 13:27:03;;;;;;;9.90;5.63;;;4.90;99.90;;;;;;6127567;23;20445;-78
2021/01/11 13:29:45;;;;;;;7.37;5.80;;;5.10;99.90;;;;;;6126983;23;20494;-79
2021/01/11 13:32:33;;;;;;;6.20;5.20;;;5.20;99.90;;;;;;6131919;23;20403;-79
2021/01/11 13:35:26;;;;;;;5.13;4.63;;;5.10;99.90;;;;;;6133354;23;20427;-80
2021/01/11 13:42:52;;;;;;;;;;;;;;;;;;;;;
2021/01/11 14:18:22;;;;;;;8.50;6.00;;;5.30;99.90;;;;;;6148924;23;20536;-80
2021/01/11 14:20:53;;;;;;;11.10;7.60;;;5.20;99.90;;;;;;6197176;23;20804;-78
2021/01/11 14:23:39;;;;;;;10.20;7.07;;;5.40;99.90;;;;;;6199790;23;20430;-77
2021/01/11 14:26:18;;;;;;;7.63;6.43;;;5.40;99.90;;;;;;6201527;23;20421;-78
2021/01/11 14:29:10;;;;;;;9.20;5.43;;;5.40;99.90;;;;;;6199677;23;20390;-78
2021/01/11 14:31:55;;;;;;;11.90;8.50;;;5.40;99.90;;;;;;6200183;23;20429;-78
2021/01/11 14:34:33;;;;;;;9.10;6.30;;;5.30;99.90;;;;;;6191061;23;20466;-78
2021/01/11 14:37:21;;;;;;;7.47;5.33;;;5.30;99.90;;;;;;6192548;23;20409;-78
2021/01/11 14:39:53;;;;;;;12.13;7.17;;;5.40;99.90;;;;;;6194549;23;20528;-78
2021/01/11 14:42:20;;;;;;;9.50;7.37;;;5.30;99.90;;;;;;6190181;23;20957;-78
2021/01/11 14:44:46;;;;;;;12.00;7.07;;;5.40;99.90;;;;;;6186174;23;20492;-79
2021/01/11 14:47:18;;;;;;;9.50;7.60;;;5.50;99.90;;;;;;6192072;23;20864;-78
2021/01/11 14:49:51;;;;;;;9.90;6.50;;;5.30;99.90;;;;;;6190597;23;20405;-78
2021/01/11 14:52:44;;;;;;;8.30;5.87;;;5.40;99.90;;;;;;6190335;23;20699;-77
2021/01/11 14:55:25;;;;;;;11.60;7.43;;;5.30;99.90;;;;;;6187956;23;20760;-79
2021/01/11 14:58:16;;;;;;;12.77;7.13;;;5.50;99.90;;;;;;6192983;23;20437;-78
2021/01/11 15:01:09;;;;;;;9.80;6.60;;;5.60;99.90;;;;;;6197084;23;20537;-87
2021/01/11 15:04:23;;;;;;;10.47;6.57;;;5.60;99.90;;;;;;6198472;23;20438;-82
2021/01/11 15:07:35;;;;;;;8.77;6.20;;;5.70;99.90;;;;;;6136879;23;20877;-84
2021/01/11 15:10:54;;;;;;;9.10;6.10;;;5.40;99.90;;;;;;6068290;23;20408;-85
2021/01/11 15:14:02;;;;;;;8.00;5.60;;;5.60;99.90;;;;;;6138295;23;20882;-82
2021/01/11 15:17:06;;;;;;;12.23;6.37;;;5.70;99.90;;;;;;6141277;23;20404;-84
2021/01/11 15:20:21;;;;;;;10.27;7.07;;;5.70;99.90;;;;;;6140073;23;20408;-80
2021/01/11 15:23:27;;;;;;;7.40;6.03;;;5.60;99.90;;;;;;6133124;23;20470;-80